Time;durP1;ratioP1;P1;durP2;ratioP2;P2;SDS_P1;SDS_P2;PMS_P1;PMS_P2;Temp;Humidity;BMP_temperature;BMP_pressure;BME280_temperature;BME280_humidity;BME280_pressure;Samples;Min_cycle;Max_cycle;Signal;HPM_P1;HPM_P2
2023/05/08 00:00:07;;;;;;;0.60;0.40;;;18.30;66.50;;;;;;4866585;29;20229;-76
2023/05/08 00:02:35;;;;;;;2.17;0.87;;;18.30;66.50;;;;;;4868143;29;20208;-74
2023/05/08 00:05:04;;;;;;;2.17;0.83;;;18.30;66.40;;;;;;4872659;29;20225;-75
2023/05/08 00:07:35;;;;;;;2.03;0.37;;;18.30;66.50;;;;;;4873341;29;20260;-75
2023/05/08 00:10:04;;;;;;;1.30;0.93;;;18.30;66.50;;;;;;4874214;29;20225;-76
2023/05/08 00:12:32;;;;;;;4.03;0.57;;;18.30;66.50;;;;;;4873527;29;20235;-76
2023/05/08 00:15:01;;;;;;;0.40;0.40;;;18.30;66.60;;;;;;4875576;29;20229;-76
2023/05/08 00:17:29;;;;;;;2.17;0.83;;;18.20;66.70;;;;;;4874779;29;20199;-76
2023/05/08 00:19:58;;;;;;;0.63;0.50;;;18.10;67.30;;;;;;4871341;29;20208;-76
2023/05/08 00:22:26;;;;;;;0.73;0.60;;;18.10;67.10;;;;;;4875401;29;20288;-75
2023/05/08 00:24:56;;;;;;;0.57;0.57;;;18.10;67.20;;;;;;4870852;29;20193;-75
2023/05/08 00:27:24;;;;;;;0.67;0.30;;;18.10;67.20;;;;;;4876734;29;20312;-75
2023/05/08 00:29:52;;;;;;;0.30;0.30;;;18.10;67.30;;;;;;4869743;29;20258;-76
2023/05/08 00:32:21;;;;;;;0.23;0.23;;;18.00;67.70;;;;;;4876758;29;20228;-76
2023/05/08 00:34:49;;;;;;;0.77;0.73;;;18.00;68.50;;;;;;4876493;29;20201;-77
2023/05/08 00:37:17;;;;;;;0.30;0.30;;;18.00;69.30;;;;;;4872477;29;20193;-76
2023/05/08 00:39:46;;;;;;;0.73;0.40;;;17.90;69.70;;;;;;4871838;29;20245;-77
2023/05/08 00:42:15;;;;;;;2.33;1.23;;;17.90;70.20;;;;;;4872832;29;20625;-75
2023/05/08 00:44:44;;;;;;;0.33;0.33;;;17.90;69.80;;;;;;4867833;29;20194;-75
2023/05/08 00:47:12;;;;;;;0.37;0.37;;;17.90;70.00;;;;;;4872173;29;20489;-75
2023/05/08 00:49:41;;;;;;;2.50;0.60;;;17.90;69.80;;;;;;4875400;29;20625;-75
2023/05/08 00:52:10;;;;;;;1.50;0.63;;;17.90;69.70;;;;;;4873444;29;20229;-76
2023/05/08 00:54:40;;;;;;;0.73;0.73;;;17.80;71.30;;;;;;4872197;29;20198;-77
2023/05/08 00:57:08;;;;;;;1.33;0.80;;;17.80;70.80;;;;;;4875858;29;21023;-77
2023/05/08 00:59:40;;;;;;;0.83;0.67;;;17.70;71.20;;;;;;4873137;29;20207;-76
2023/05/08 01:02:09;;;;;;;1.10;1.00;;;17.70;71.60;;;;;;4870338;29;20254;-75
2023/05/08 01:04:38;;;;;;;0.47;0.47;;;17.70;71.50;;;;;;4872439;29;20247;-76
2023/05/08 01:07:06;;;;;;;1.63;0.43;;;17.60;71.90;;;;;;4875418;29;20709;-75
2023/05/08 01:09:34;;;;;;;0.60;0.57;;;17.50;72.30;;;;;;4877031;29;20244;-77
2023/05/08 01:12:13;;;;;;;1.17;0.70;;;17.60;71.90;;;;;;4871091;29;20265;-77
2023/05/08 01:14:56;;;;;;;1.13;0.90;;;17.50;71.70;;;;;;4873019;29;20205;-75
2023/05/08 01:17:35;;;;;;;2.00;1.17;;;17.50;72.20;;;;;;4869147;29;20221;-76
2023/05/08 01:20:16;;;;;;;0.73;0.63;;;17.40;72.70;;;;;;4873142;29;20320;-76
2023/05/08 01:23:08;;;;;;;0.30;0.30;;;17.40;72.70;;;;;;4874704;29;20211;-76
2023/05/08 01:26:34;;;;;;;0.20;0.20;;;17.40;72.40;;;;;;4863019;29;20229;-77
2023/05/08 01:29:43;;;;;;;0.60;0.60;;;17.40;72.40;;;;;;4837335;29;20725;-76
2023/05/08 01:32:17;;;;;;;0.63;0.63;;;17.40;72.30;;;;;;4868002;29;20197;-75
2023/05/08 01:34:54;;;;;;;0.37;0.37;;;17.40;72.40;;;;;;4874814;29;20197;-77
2023/05/08 01:37:29;;;;;;;2.63;1.43;;;17.40;72.90;;;;;;4875612;29;20197;-76
2023/05/08 01:40:08;;;;;;;0.40;0.40;;;17.30;73.50;;;;;;4869429;29;20737;-77
2023/05/08 01:42:46;;;;;;;1.10;0.40;;;17.30;73.40;;;;;;4875463;29;20622;-75
2023/05/08 01:45:32;;;;;;;1.10;0.80;;;17.20;73.70;;;;;;4867910;29;20224;-76
2023/05/08 01:48:06;;;;;;;1.40;0.90;;;17.20;73.60;;;;;;4871895;29;20308;-77
2023/05/08 01:50:38;;;;;;;3.53;0.50;;;17.20;73.40;;;;;;4867429;29;20197;-78
2023/05/08 01:53:13;;;;;;;1.33;1.23;;;17.20;73.30;;;;;;4873790;29;20218;-76
2023/05/08 01:55:43;;;;;;;0.50;0.50;;;17.10;73.60;;;;;;4865662;29;20296;-78
2023/05/08 01:58:13;;;;;;;0.70;0.60;;;17.10;73.70;;;;;;4867568;29;20201;-76
2023/05/08 02:00:43;;;;;;;0.40;0.40;;;17.00;73.80;;;;;;4865334;29;20193;-76
2023/05/08 02:03:14;;;;;;;0.60;0.60;;;17.00;73.60;;;;;;4873799;29;20651;-76
2023/05/08 02:05:44;;;;;;;0.60;0.43;;;17.00;73.80;;;;;;4869771;29;20249;-78
2023/05/08 02:08:15;;;;;;;0.40;0.40;;;17.00;73.70;;;;;;4871502;29;20229;-76
2023/05/08 02:10:44;;;;;;;0.60;0.47;;;16.90;73.50;;;;;;4866461;29;20225;-76
2023/05/08 02:13:17;;;;;;;2.93;1.33;;;16.90;73.40;;;;;;4868835;29;20198;-75
2023/05/08 02:15:48;;;;;;;0.50;0.50;;;16.90;73.30;;;;;;4866180;29;20225;-78
2023/05/08 02:18:21;;;;;;;0.30;0.30;;;16.90;73.20;;;;;;4872610;29;20225;-76
2023/05/08 02:20:51;;;;;;;1.40;0.77;;;16.90;73.00;;;;;;4864651;29;20746;-78
2023/05/08 02:23:20;;;;;;;0.67;0.40;;;16.90;73.00;;;;;;4870617;29;20201;-76
2023/05/08 02:25:50;;;;;;;0.77;0.50;;;16.90;73.00;;;;;;4871540;29;20269;-76
2023/05/08 02:28:19;;;;;;;0.80;0.80;;;16.90;73.00;;;;;;4867247;29;20727;-79
2023/05/08 02:30:48;;;;;;;0.60;0.60;;;16.90;73.30;;;;;;4865490;29;20210;-77
2023/05/08 02:33:19;;;;;;;0.33;0.33;;;16.90;73.60;;;;;;4867481;29;20216;-75
2023/05/08 02:35:50;;;;;;;0.40;0.40;;;17.00;73.30;;;;;;4863130;29;20258;-75
2023/05/08 02:38:21;;;;;;;1.10;1.03;;;17.00;73.40;;;;;;4868808;29;20317;-77
2023/05/08 02:40:53;;;;;;;0.37;0.33;;;17.00;73.50;;;;;;4868052;29;20201;-77
2023/05/08 02:43:22;;;;;;;0.60;0.60;;;17.00;73.40;;;;;;4870454;29;20193;-77
2023/05/08 02:45:59;;;;;;;0.40;0.40;;;17.00;73.40;;;;;;4869711;29;20205;-77
2023/05/08 02:48:38;;;;;;;0.53;0.53;;;16.90;73.60;;;;;;4869893;29;20643;-75
2023/05/08 02:51:18;;;;;;;0.30;0.30;;;17.00;73.30;;;;;;4868226;29;20204;-75
2023/05/08 02:53:52;;;;;;;3.00;1.20;;;17.00;73.10;;;;;;4870975;29;20204;-77
2023/05/08 02:56:34;;;;;;;0.50;0.40;;;17.00;73.10;;;;;;4865979;29;20225;-77
2023/05/08 02:59:13;;;;;;;0.77;0.40;;;17.00;72.90;;;;;;4867543;29;20610;-77
2023/05/08 03:01:48;;;;;;;0.90;0.53;;;17.00;72.90;;;;;;4870326;29;20666;-76
2023/05/08 03:04:25;;;;;;;0.90;0.70;;;16.90;74.10;;;;;;4867487;29;20205;-77
2023/05/08 03:06:57;;;;;;;1.50;0.90;;;16.90;73.40;;;;;;4869174;29;20197;-77
2023/05/08 03:09:31;;;;;;;1.50;0.97;;;17.00;73.40;;;;;;4869871;29;20218;-76
2023/05/08 03:12:04;;;;;;;0.37;0.37;;;17.00;73.10;;;;;;4864821;29;20224;-76
2023/05/08 03:14:41;;;;;;;0.63;0.63;;;17.00;73.20;;;;;;4870368;29;20225;-75
2023/05/08 03:17:13;;;;;;;0.63;0.63;;;17.00;73.10;;;;;;4864443;29;20845;-76
2023/05/08 03:19:47;;;;;;;0.90;0.90;;;16.90;74.00;;;;;;4867286;29;20205;-76
2023/05/08 03:22:16;;;;;;;2.63;0.90;;;16.90;74.30;;;;;;4871215;29;20203;-74
2023/05/08 03:24:46;;;;;;;0.53;0.40;;;16.90;75.20;;;;;;4863935;29;20197;-77
2023/05/08 03:27:16;;;;;;;0.53;0.53;;;16.90;75.00;;;;;;4865179;29;20226;-76
2023/05/08 03:29:45;;;;;;;1.03;0.90;;;16.90;75.60;;;;;;4873016;29;20260;-75
2023/05/08 03:32:15;;;;;;;1.03;0.93;;;16.90;75.20;;;;;;4871268;29;20194;-76
2023/05/08 03:34:46;;;;;;;2.47;0.70;;;16.80;76.10;;;;;;4873375;29;20212;-77
2023/05/08 03:37:14;;;;;;;0.50;0.50;;;16.90;75.60;;;;;;4868059;29;20197;-77
2023/05/08 03:39:44;;;;;;;0.97;0.90;;;16.90;75.70;;;;;;4833210;29;20690;-76
2023/05/08 03:42:20;;;;;;;1.40;0.70;;;16.90;76.10;;;;;;4838529;29;20202;-77
2023/05/08 03:44:50;;;;;;;0.83;0.83;;;16.90;75.50;;;;;;4840953;29;20285;-77
2023/05/08 03:47:19;;;;;;;1.17;0.50;;;16.90;75.90;;;;;;4837778;29;20229;-77
2023/05/08 03:49:49;;;;;;;1.17;0.70;;;16.90;75.50;;;;;;4839139;29;20233;-76
2023/05/08 03:52:18;;;;;;;0.40;0.40;;;16.90;75.30;;;;;;4840838;29;20556;-76
2023/05/08 03:54:46;;;;;;;0.40;0.40;;;16.90;75.60;;;;;;4843918;29;20206;-78
2023/05/08 03:57:15;;;;;;;0.50;0.50;;;16.90;75.60;;;;;;4843497;29;20306;-75
2023/05/08 03:59:48;;;;;;;1.00;0.83;;;16.90;75.50;;;;;;4840286;29;20287;-76
2023/05/08 04:02:22;;;;;;;0.70;0.60;;;16.90;75.50;;;;;;4842473;29;20194;-75
2023/05/08 04:05:00;;;;;;;1.20;0.70;;;16.90;75.40;;;;;;4836357;29;20195;-79
2023/05/08 04:07:32;;;;;;;0.60;0.60;;;16.90;75.30;;;;;;4839259;29;20682;-76
2023/05/08 04:10:06;;;;;;;0.30;0.30;;;16.90;75.80;;;;;;4839617;29;20305;-76
2023/05/08 04:12:40;;;;;;;3.30;1.10;;;16.90;75.80;;;;;;4841152;29;20194;-76
2023/05/08 04:15:13;;;;;;;0.73;0.43;;;16.90;76.00;;;;;;4839283;29;20202;-76
2023/05/08 04:17:45;;;;;;;2.53;1.20;;;16.90;75.80;;;;;;4837268;29;20234;-76
2023/05/08 04:20:19;;;;;;;0.60;0.60;;;16.90;75.80;;;;;;4842752;29;20302;-76
2023/05/08 04:22:50;;;;;;;9.80;0.97;;;16.90;75.60;;;;;;4841052;29;20245;-77
2023/05/08 04:25:19;;;;;;;0.70;0.70;;;16.90;75.60;;;;;;4839408;29;20194;-75
2023/05/08 04:27:51;;;;;;;0.90;0.80;;;16.90;75.80;;;;;;4829841;29;20206;-76
2023/05/08 04:30:19;;;;;;;0.60;0.60;;;16.90;76.10;;;;;;4835792;29;20680;-79
2023/05/08 04:32:48;;;;;;;0.33;0.33;;;16.90;75.90;;;;;;4835392;29;20242;-76
2023/05/08 04:35:18;;;;;;;0.97;0.77;;;17.00;75.80;;;;;;4831127;29;20267;-76
2023/05/08 04:37:47;;;;;;;0.73;0.40;;;17.00;76.10;;;;;;4846341;29;20237;-75
2023/05/08 04:40:15;;;;;;;0.87;0.60;;;17.00;75.90;;;;;;4871640;29;20200;-76
2023/05/08 04:42:46;;;;;;;3.37;0.90;;;17.00;75.90;;;;;;4875111;29;20224;-76
2023/05/08 04:45:15;;;;;;;0.40;0.40;;;17.00;75.70;;;;;;4870482;29;20201;-76
2023/05/08 04:47:43;;;;;;;0.67;0.63;;;17.00;75.60;;;;;;4867459;29;20696;-74
2023/05/08 04:50:12;;;;;;;0.60;0.60;;;17.00;75.90;;;;;;4868924;29;20229;-77
2023/05/08 04:52:42;;;;;;;0.60;0.60;;;17.00;75.60;;;;;;4868094;29;20200;-77
2023/05/08 04:55:10;;;;;;;13.17;0.80;;;17.00;75.80;;;;;;4873442;29;20203;-77
2023/05/08 04:57:39;;;;;;;1.03;0.80;;;17.00;75.50;;;;;;4864746;29;23424;-77
2023/05/08 05:00:10;;;;;;;2.03;0.93;;;17.00;75.70;;;;;;4875429;29;20198;-79
2023/05/08 05:02:38;;;;;;;1.53;1.43;;;17.00;75.80;;;;;;4871612;29;20205;-77
2023/05/08 05:05:08;;;;;;;0.90;0.77;;;17.00;75.60;;;;;;4872184;29;20227;-77
2023/05/08 05:07:36;;;;;;;1.53;1.43;;;17.00;75.50;;;;;;4868138;29;20213;-76
2023/05/08 05:10:07;;;;;;;2.93;1.13;;;17.10;75.70;;;;;;4871863;29;20233;-77
2023/05/08 05:12:35;;;;;;;1.40;0.77;;;17.10;76.10;;;;;;4866983;29;20205;-77
2023/05/08 05:15:04;;;;;;;6.87;1.23;;;17.10;76.50;;;;;;4872847;29;20236;-77
2023/05/08 05:17:34;;;;;;;0.67;0.57;;;17.10;76.20;;;;;;4870106;29;20226;-77
2023/05/08 05:20:02;;;;;;;0.80;0.80;;;17.10;76.20;;;;;;4869456;29;20201;-77
2023/05/08 05:22:33;;;;;;;1.23;0.73;;;17.10;76.50;;;;;;4871618;29;20601;-76
2023/05/08 05:25:01;;;;;;;0.73;0.57;;;17.10;76.60;;;;;;4872837;29;20300;-79
2023/05/08 05:27:31;;;;;;;1.70;0.63;;;17.10;78.20;;;;;;4876616;29;20546;-77
2023/05/08 05:29:59;;;;;;;3.57;1.33;;;17.10;76.90;;;;;;4870571;29;20217;-77
2023/05/08 05:32:27;;;;;;;0.93;0.77;;;17.10;76.70;;;;;;4873927;29;20232;-77
2023/05/08 05:34:56;;;;;;;0.93;0.83;;;17.10;76.40;;;;;;4869903;29;20228;-75
2023/05/08 05:37:24;;;;;;;1.60;1.27;;;17.20;76.30;;;;;;4867204;29;20295;-77
2023/05/08 05:39:52;;;;;;;1.63;1.03;;;17.30;76.10;;;;;;4868758;29;20206;-77
2023/05/08 05:42:20;;;;;;;3.47;1.40;;;17.30;76.40;;;;;;4868274;29;20211;-77
2023/05/08 05:44:51;;;;;;;1.07;0.97;;;17.20;76.10;;;;;;4871765;29;20629;-76
2023/05/08 05:47:19;;;;;;;0.37;0.37;;;17.30;76.10;;;;;;4869028;29;20631;-76
2023/05/08 05:49:48;;;;;;;1.30;1.10;;;17.30;76.00;;;;;;4869297;29;20813;-78
2023/05/08 05:52:16;;;;;;;0.90;0.90;;;17.40;75.90;;;;;;4869640;29;20223;-77
2023/05/08 05:54:45;;;;;;;1.60;1.23;;;17.40;75.80;;;;;;4864825;29;20232;-79
2023/05/08 05:57:13;;;;;;;4.87;1.47;;;17.40;76.30;;;;;;4873940;29;20739;-75
2023/05/08 05:59:42;;;;;;;3.50;1.05;;;17.50;76.10;;;;;;4872387;29;20444;-77
2023/05/08 06:02:17;;;;;;;0.57;0.57;;;17.50;76.30;;;;;;4872703;29;20204;-76
2023/05/08 06:04:46;;;;;;;2.53;1.27;;;17.50;76.20;;;;;;4874628;29;20197;-78
2023/05/08 06:07:14;;;;;;;2.40;1.00;;;17.50;76.10;;;;;;4869999;29;20352;-76
2023/05/08 06:09:42;;;;;;;1.57;0.97;;;17.60;75.90;;;;;;4866493;29;20229;-75
2023/05/08 06:12:10;;;;;;;2.37;1.60;;;17.60;75.80;;;;;;4872219;29;20256;-76
2023/05/08 06:14:39;;;;;;;1.53;0.70;;;17.60;75.70;;;;;;4870098;29;20209;-76
2023/05/08 06:17:07;;;;;;;1.33;1.17;;;17.70;76.00;;;;;;4864223;29;20609;-79
2023/05/08 06:19:37;;;;;;;13.13;1.57;;;17.70;75.90;;;;;;4862729;29;20209;-78
2023/05/08 06:22:05;;;;;;;2.17;1.40;;;17.80;76.00;;;;;;4864976;29;20212;-80
2023/05/08 06:24:34;;;;;;;3.97;0.97;;;17.80;76.00;;;;;;4867227;29;20253;-76
2023/05/08 06:27:02;;;;;;;2.13;1.30;;;17.90;76.00;;;;;;4877080;29;20215;-77
2023/05/08 06:29:31;;;;;;;4.80;1.10;;;17.90;75.60;;;;;;4872529;29;20229;-77
2023/05/08 06:31:59;;;;;;;1.03;0.60;;;17.90;75.20;;;;;;4863522;29;20201;-78
2023/05/08 06:34:27;;;;;;;1.07;0.87;;;18.00;75.80;;;;;;4871472;29;20236;-76
2023/05/08 06:36:57;;;;;;;2.90;1.40;;;18.10;76.00;;;;;;4870654;29;20288;-77
2023/05/08 06:39:25;;;;;;;1.23;0.97;;;18.20;75.90;;;;;;4867122;29;20233;-79
2023/05/08 06:41:53;;;;;;;1.73;1.00;;;18.30;75.70;;;;;;4870707;29;20265;-77
2023/05/08 06:44:22;;;;;;;1.67;0.97;;;18.30;75.50;;;;;;4873239;29;20280;-77
2023/05/08 06:46:50;;;;;;;1.40;0.87;;;18.30;74.70;;;;;;4872458;29;20623;-77
2023/05/08 06:49:18;;;;;;;1.53;1.10;;;18.40;74.90;;;;;;4868409;29;20204;-76
2023/05/08 06:51:46;;;;;;;2.63;1.73;;;18.40;74.90;;;;;;4869114;29;20638;-76
2023/05/08 06:54:17;;;;;;;5.40;2.00;;;18.50;75.20;;;;;;4866161;29;20236;-75
2023/05/08 06:56:46;;;;;;;9.13;1.43;;;18.40;74.60;;;;;;4865404;29;20729;-76
2023/05/08 06:59:23;;;;;;;1.10;0.80;;;18.40;74.70;;;;;;4863232;29;20213;-77
2023/05/08 07:01:51;;;;;;;1.60;1.00;;;18.40;74.70;;;;;;4866664;29;20204;-77
2023/05/08 07:04:20;;;;;;;2.03;1.43;;;18.30;73.90;;;;;;4859184;29;20197;-76
2023/05/08 07:06:48;;;;;;;2.47;1.63;;;18.20;73.80;;;;;;4871131;29;20270;-78
2023/05/08 07:09:18;;;;;;;2.30;1.07;;;18.20;74.30;;;;;;4872767;29;20720;-74
2023/05/08 07:11:46;;;;;;;1.27;0.87;;;18.20;74.40;;;;;;4868870;29;20278;-77
2023/05/08 07:14:15;;;;;;;2.60;1.20;;;18.30;74.50;;;;;;4878033;29;20193;-75
2023/05/08 07:16:43;;;;;;;4.40;1.33;;;18.30;74.90;;;;;;4866315;29;20280;-75
2023/05/08 07:19:11;;;;;;;2.47;1.30;;;18.30;74.70;;;;;;4869589;29;20261;-76
2023/05/08 07:21:40;;;;;;;1.97;0.93;;;18.20;74.90;;;;;;4871547;29;20201;-76
2023/05/08 07:24:08;;;;;;;1.23;0.83;;;18.30;74.90;;;;;;4875256;29;20201;-76
2023/05/08 07:26:38;;;;;;;3.63;1.33;;;18.20;75.20;;;;;;4873244;29;20209;-76
2023/05/08 07:29:07;;;;;;;1.37;1.00;;;18.20;75.10;;;;;;4876727;29;20216;-78
2023/05/08 07:31:35;;;;;;;2.43;0.90;;;18.10;75.20;;;;;;4877640;29;20316;-75
2023/05/08 07:34:03;;;;;;;1.53;1.00;;;18.10;75.10;;;;;;4865969;29;20225;-76
2023/05/08 07:36:31;;;;;;;2.23;1.03;;;18.00;74.90;;;;;;4876821;29;20240;-74
2023/05/08 07:39:00;;;;;;;0.77;0.73;;;18.00;75.00;;;;;;4879896;29;20645;-76
2023/05/08 07:41:28;;;;;;;2.93;1.40;;;18.00;75.50;;;;;;4880020;29;20197;-74
2023/05/08 07:43:58;;;;;;;1.83;1.03;;;18.00;76.70;;;;;;4876237;29;20197;-75
2023/05/08 07:46:26;;;;;;;1.70;1.07;;;18.10;76.70;;;;;;4871727;29;20208;-74
2023/05/08 07:48:54;;;;;;;1.27;0.73;;;18.00;77.10;;;;;;4875167;29;20685;-75
2023/05/08 07:51:23;;;;;;;1.53;1.20;;;18.00;77.10;;;;;;4873154;29;20232;-77
2023/05/08 07:53:51;;;;;;;1.07;0.80;;;18.00;76.50;;;;;;4876031;29;20231;-75
2023/05/08 07:56:20;;;;;;;1.37;0.70;;;18.10;76.60;;;;;;4869461;29;20233;-77
2023/05/08 07:58:48;;;;;;;2.83;1.33;;;18.10;76.50;;;;;;4873114;29;20541;-75
2023/05/08 08:01:18;;;;;;;1.20;0.90;;;18.10;76.30;;;;;;4872035;29;20209;-75
2023/05/08 08:03:46;;;;;;;1.67;0.83;;;18.10;76.10;;;;;;4869960;29;20208;-77
2023/05/08 08:06:15;;;;;;;1.33;0.77;;;18.10;76.10;;;;;;4867248;29;20257;-74
2023/05/08 08:08:53;;;;;;;2.37;1.50;;;18.20;75.70;;;;;;4869565;29;20198;-79
2023/05/08 08:11:25;;;;;;;1.50;1.07;;;18.20;75.90;;;;;;4866864;29;20217;-74
2023/05/08 08:13:57;;;;;;;1.37;0.60;;;18.20;75.70;;;;;;4865746;29;20269;-74
2023/05/08 08:16:27;;;;;;;1.53;0.90;;;18.30;75.40;;;;;;4863250;29;20197;-74
2023/05/08 08:18:55;;;;;;;1.03;0.93;;;18.30;74.60;;;;;;4872740;29;20295;-75
2023/05/08 08:21:23;;;;;;;0.93;0.60;;;18.30;74.30;;;;;;4869123;29;20667;-73
2023/05/08 08:23:52;;;;;;;0.80;0.60;;;18.40;74.30;;;;;;4869901;29;20249;-75
2023/05/08 08:26:20;;;;;;;1.67;1.00;;;18.40;74.10;;;;;;4864265;29;20205;-75
2023/05/08 08:28:48;;;;;;;1.00;0.87;;;18.40;73.80;;;;;;4875981;29;20232;-76
2023/05/08 08:31:18;;;;;;;0.57;0.50;;;18.30;72.70;;;;;;4874763;29;20698;-77
2023/05/08 08:33:48;;;;;;;1.07;0.53;;;18.40;73.30;;;;;;4878278;29;20225;-76
2023/05/08 08:36:17;;;;;;;1.77;1.13;;;18.30;73.50;;;;;;4878026;29;20774;-75
2023/05/08 08:38:45;;;;;;;0.60;0.50;;;18.30;73.80;;;;;;4874252;29;20229;-75
2023/05/08 08:41:14;;;;;;;0.97;0.77;;;18.30;74.90;;;;;;4874417;29;20197;-76
2023/05/08 08:43:43;;;;;;;1.40;1.23;;;18.20;77.00;;;;;;4875546;29;20197;-75
2023/05/08 08:46:15;;;;;;;1.93;1.43;;;18.10;79.40;;;;;;4874972;29;20209;-78
2023/05/08 08:48:50;;;;;;;1.57;0.80;;;18.00;80.30;;;;;;4870558;29;20224;-75
2023/05/08 08:51:25;;;;;;;4.30;0.90;;;17.90;81.60;;;;;;4874436;29;20220;-75
2023/05/08 08:54:02;;;;;;;1.03;0.93;;;17.80;82.30;;;;;;4872924;29;20300;-75
2023/05/08 08:56:32;;;;;;;1.97;0.73;;;17.70;83.90;;;;;;4872098;29;20224;-75
2023/05/08 08:59:01;;;;;;;1.53;0.90;;;17.70;84.70;;;;;;4867262;29;20281;-75
2023/05/08 09:01:35;;;;;;;4.23;1.37;;;17.70;85.00;;;;;;4864680;29;20197;-77
2023/05/08 09:04:05;;;;;;;2.63;1.43;;;17.60;87.00;;;;;;4869791;29;20201;-76
2023/05/08 09:06:36;;;;;;;0.70;0.70;;;17.50;86.90;;;;;;4877122;29;20196;-79
2023/05/08 09:09:11;;;;;;;0.73;0.73;;;17.50;87.50;;;;;;4881038;29;20190;-77
2023/05/08 09:12:03;;;;;;;1.33;1.03;;;17.40;87.70;;;;;;4875971;29;20594;-78
2023/05/08 09:14:31;;;;;;;1.17;1.07;;;17.30;89.10;;;;;;4878868;29;20197;-78
2023/05/08 09:16:59;;;;;;;1.53;0.90;;;17.20;88.20;;;;;;4832654;29;20229;-76
2023/05/08 09:19:29;;;;;;;1.03;0.77;;;17.30;88.10;;;;;;4876096;29;20233;-74
2023/05/08 09:22:00;;;;;;;1.33;0.70;;;17.20;89.80;;;;;;4872187;29;20204;-76
2023/05/08 09:25:02;;;;;;;2.00;0.70;;;17.20;90.00;;;;;;4866360;29;20205;-76
2023/05/08 09:27:31;;;;;;;0.67;0.67;;;17.20;89.10;;;;;;4865953;29;20223;-78
2023/05/08 09:30:01;;;;;;;1.75;1.13;;;17.20;90.00;;;;;;4873997;29;20447;-75
2023/05/08 09:32:30;;;;;;;2.00;1.30;;;17.10;90.20;;;;;;4868069;29;20273;-76
2023/05/08 09:35:00;;;;;;;1.10;0.77;;;17.10;90.50;;;;;;4869552;29;21095;-76
2023/05/08 09:37:29;;;;;;;5.63;1.43;;;17.10;90.50;;;;;;4873238;29;20276;-79
2023/05/08 09:40:14;;;;;;;1.40;0.90;;;17.10;90.40;;;;;;4878517;29;20459;-77
2023/05/08 09:42:42;;;;;;;0.50;0.50;;;17.10;90.30;;;;;;4872281;29;20925;-76
2023/05/08 09:45:12;;;;;;;0.93;0.80;;;17.10;90.10;;;;;;4877035;29;20212;-79
2023/05/08 09:47:48;;;;;;;1.03;0.63;;;17.00;90.60;;;;;;4867594;29;20221;-79
2023/05/08 09:50:18;;;;;;;0.90;0.60;;;17.00;90.60;;;;;;4868054;29;20196;-76
2023/05/08 09:52:48;;;;;;;1.30;1.07;;;17.00;90.40;;;;;;4875384;29;20777;-80
2023/05/08 09:55:16;;;;;;;0.63;0.63;;;16.90;90.70;;;;;;4869064;29;20292;-77
2023/05/08 09:57:55;;;;;;;0.63;0.60;;;16.90;90.90;;;;;;4874473;29;20644;-76
2023/05/08 10:00:24;;;;;;;2.97;0.87;;;16.80;90.70;;;;;;4865454;29;20205;-78
2023/05/08 10:02:57;;;;;;;9.97;1.57;;;16.80;90.60;;;;;;4869909;29;20197;-76
2023/05/08 10:05:29;;;;;;;1.10;0.90;;;16.80;90.70;;;;;;4874540;29;20204;-77
2023/05/08 10:08:00;;;;;;;1.53;1.20;;;16.70;91.00;;;;;;4869628;29;20200;-76
2023/05/08 10:10:30;;;;;;;1.60;0.77;;;16.70;90.80;;;;;;4867513;29;20221;-79
2023/05/08 10:12:59;;;;;;;3.07;0.83;;;16.80;90.60;;;;;;4867411;29;20221;-79
2023/05/08 10:15:31;;;;;;;3.40;1.30;;;16.70;91.00;;;;;;4866826;29;20253;-77
2023/05/08 10:18:04;;;;;;;2.00;1.00;;;16.70;91.20;;;;;;4843648;29;20233;-76
2023/05/08 10:20:38;;;;;;;0.60;0.60;;;16.70;91.20;;;;;;4867379;29;20200;-78
2023/05/08 10:23:10;;;;;;;1.50;0.80;;;16.70;91.20;;;;;;4873261;29;20189;-78
2023/05/08 10:25:44;;;;;;;1.77;1.07;;;16.70;91.10;;;;;;4875509;29;20207;-80
2023/05/08 10:28:18;;;;;;;1.73;0.93;;;16.70;91.40;;;;;;4872564;29;20280;-77
2023/05/08 10:30:49;;;;;;;2.10;0.83;;;16.70;91.60;;;;;;4877441;29;20204;-75
2023/05/08 10:33:21;;;;;;;1.97;1.47;;;16.60;91.70;;;;;;4873437;29;20719;-79
2023/05/08 10:35:51;;;;;;;0.90;0.63;;;16.60;91.80;;;;;;4872845;29;20210;-77
2023/05/08 10:38:20;;;;;;;0.93;0.87;;;16.60;91.80;;;;;;4868652;29;20230;-75
2023/05/08 10:40:51;;;;;;;1.20;0.70;;;16.60;91.70;;;;;;4868996;29;20674;-79
2023/05/08 10:43:20;;;;;;;1.13;0.70;;;16.60;91.40;;;;;;4870760;29;21049;-77
2023/05/08 10:45:49;;;;;;;5.93;1.50;;;16.60;91.70;;;;;;4864328;29;20206;-77
2023/05/08 10:48:27;;;;;;;1.33;1.23;;;16.70;91.60;;;;;;4873658;29;20193;-80
2023/05/08 10:51:05;;;;;;;1.27;1.00;;;16.60;91.70;;;;;;4870665;29;20283;-78
2023/05/08 10:57:25;;;;;;;0.50;0.50;;;16.60;91.50;;;;;;4786193;29;20200;-76
2023/05/08 10:59:53;;;;;;;0.60;0.60;;;16.60;91.40;;;;;;4856716;29;20201;-76
2023/05/08 11:02:28;;;;;;;0.50;0.50;;;16.60;91.50;;;;;;4872844;29;20257;-76
2023/05/08 11:05:14;;;;;;;0.57;0.57;;;16.70;91.40;;;;;;4876049;29;20287;-76
2023/05/08 11:07:57;;;;;;;0.60;0.50;;;16.70;91.50;;;;;;4867162;29;20267;-77
2023/05/08 11:10:31;;;;;;;1.80;0.70;;;16.70;91.40;;;;;;4878235;29;20189;-79
2023/05/08 11:13:04;;;;;;;1.13;0.50;;;16.70;91.40;;;;;;4875473;29;20706;-78
2023/05/08 11:15:39;;;;;;;1.83;1.20;;;16.70;91.50;;;;;;4870775;29;20213;-77
2023/05/08 11:18:10;;;;;;;0.83;0.80;;;16.70;91.80;;;;;;4876107;29;20199;-77
2023/05/08 11:20:39;;;;;;;1.60;0.90;;;16.60;91.60;;;;;;4871158;29;20203;-76
2023/05/08 11:23:25;;;;;;;1.27;0.80;;;16.60;91.50;;;;;;4877403;29;20224;-76
2023/05/08 11:26:01;;;;;;;2.37;1.63;;;16.60;91.30;;;;;;4872160;29;20212;-77
2023/05/08 11:28:32;;;;;;;0.97;0.87;;;16.60;91.40;;;;;;4867878;29;20204;-77
2023/05/08 11:31:04;;;;;;;2.83;1.80;;;16.60;91.50;;;;;;4871163;29;20194;-78
2023/05/08 11:33:33;;;;;;;2.20;1.10;;;16.60;91.80;;;;;;4880613;29;20226;-79
2023/05/08 11:36:12;;;;;;;1.33;0.80;;;16.50;91.50;;;;;;4874929;29;20201;-78
2023/05/08 11:38:43;;;;;;;1.43;0.97;;;16.50;91.50;;;;;;4874909;29;20364;-77
2023/05/08 11:41:21;;;;;;;1.73;1.27;;;16.50;91.50;;;;;;4875427;29;20228;-79
2023/05/08 11:44:13;;;;;;;1.40;0.90;;;16.50;91.60;;;;;;4872211;29;20193;-77
2023/05/08 11:46:44;;;;;;;2.77;1.67;;;16.50;91.60;;;;;;4873110;29;20273;-78
2023/05/08 11:49:17;;;;;;;2.33;1.37;;;16.50;91.70;;;;;;4867643;29;20197;-78
2023/05/08 11:51:54;;;;;;;1.80;1.27;;;16.50;91.60;;;;;;4872413;29;20201;-78
2023/05/08 11:54:25;;;;;;;3.50;1.53;;;16.50;91.70;;;;;;4864070;29;20224;-77
2023/05/08 11:56:54;;;;;;;0.70;0.70;;;16.40;91.70;;;;;;4868316;29;20208;-78
2023/05/08 11:59:22;;;;;;;0.93;0.93;;;16.40;91.70;;;;;;4878019;29;20260;-76
2023/05/08 12:01:51;;;;;;;3.07;1.50;;;16.40;91.90;;;;;;4876797;29;20208;-76
2023/05/08 12:04:22;;;;;;;1.10;1.00;;;16.40;91.80;;;;;;4878639;29;20229;-78
2023/05/08 12:06:56;;;;;;;0.57;0.57;;;16.40;91.80;;;;;;4876343;29;20201;-77
2023/05/08 12:09:27;;;;;;;1.03;0.93;;;16.30;91.90;;;;;;4874546;29;20629;-76
2023/05/08 12:12:02;;;;;;;1.10;0.90;;;16.30;92.20;;;;;;4877776;29;20222;-78
2023/05/08 12:14:30;;;;;;;1.33;0.90;;;16.40;92.00;;;;;;4869811;29;20203;-78
2023/05/08 12:16:58;;;;;;;2.00;1.07;;;16.30;92.20;;;;;;4871319;29;20190;-79
2023/05/08 12:19:27;;;;;;;1.50;1.13;;;16.30;92.20;;;;;;4865837;29;20288;-79
2023/05/08 12:22:47;;;;;;;2.43;1.93;;;16.30;92.20;;;;;;4870697;29;20202;-79
2023/05/08 12:26:02;;;;;;;2.00;0.97;;;16.20;92.40;;;;;;4795306;29;20712;-80
2023/05/08 12:28:31;;;;;;;1.00;1.00;;;16.20;92.40;;;;;;4816482;29;20259;-77
2023/05/08 12:30:59;;;;;;;3.50;1.43;;;16.20;92.40;;;;;;4866618;29;20245;-75
2023/05/08 12:33:29;;;;;;;1.57;1.17;;;16.20;92.30;;;;;;4876635;29;20243;-77
2023/05/08 12:35:58;;;;;;;1.07;0.77;;;16.30;92.30;;;;;;4874731;29;20196;-77
2023/05/08 12:38:27;;;;;;;1.67;1.00;;;16.30;92.40;;;;;;4874657;29;20566;-78
2023/05/08 12:40:56;;;;;;;2.53;1.27;;;16.30;92.50;;;;;;4867245;29;20288;-74
2023/05/08 12:43:32;;;;;;;0.73;0.60;;;16.20;92.60;;;;;;4876988;29;20618;-77
2023/05/08 12:46:00;;;;;;;1.70;1.23;;;16.30;92.50;;;;;;4869201;29;20564;-77
2023/05/08 12:48:29;;;;;;;0.87;0.83;;;16.20;92.80;;;;;;4874198;29;20298;-79
2023/05/08 12:51:02;;;;;;;1.23;1.13;;;16.20;93.30;;;;;;4876471;29;20232;-77
2023/05/08 12:53:32;;;;;;;2.93;1.97;;;16.20;92.70;;;;;;4873740;29;20221;-77
2023/05/08 12:56:05;;;;;;;4.60;1.60;;;16.20;92.80;;;;;;4874004;29;20224;-76
2023/05/08 12:58:34;;;;;;;1.60;1.00;;;16.20;92.90;;;;;;4876521;29;20754;-77
2023/05/08 13:01:08;;;;;;;1.77;1.30;;;16.30;92.80;;;;;;4877567;29;20193;-76
2023/05/08 13:03:37;;;;;;;1.90;1.57;;;16.20;93.10;;;;;;4877796;29;20204;-77
2023/05/08 13:06:06;;;;;;;1.20;1.10;;;16.30;93.00;;;;;;4873271;29;20205;-80
2023/05/08 13:08:36;;;;;;;5.00;0.93;;;16.30;93.10;;;;;;4871698;29;20201;-76
2023/05/08 13:11:07;;;;;;;0.80;0.73;;;16.20;93.50;;;;;;4876633;29;20296;-79
2023/05/08 13:13:37;;;;;;;1.40;0.97;;;16.30;93.00;;;;;;4871542;29;20229;-77